Betagas — V2KA8 — position and weather

sailwx.info

Track history (hours):
 
Tides and Currents Weather Stations Pressure Air Temp Water Temp Dewpoint Dewpoint Depression Visibility Wind Speed Wind Dir Waves Ship Positions

Betagas

Last reported at 2015-May-30 19:34 UTC. Time now 2015-May-30 20:32 UTC.
Position N 49°34' W 000°07'.

Length 114.6 m; beam 15.7 m; draft 7.4 m.

Type: Ship. MMSI: 304050636.

Date/timePositionNaut miles runAvg speedWind from/ knotsBaromVisibWave heightAir tempDewpointWater temp
2015-May-30 19:34N 49°34' W 000°07'1010.5
2015-May-30 18:34N 49°26' E 000°04'1111.5
2015-May-30 17:34N 49°26' E 000°22'7 7.0
2015-May-30 16:34N 49°28' E 000°32'0 0.0
2015-May-30 15:09N 49°28' E 000°32'0 0.0
2015-May-30 14:27N 49°28' E 000°32'0 0.0
2015-May-30 13:33N 49°28' E 000°32'0 0.0
2015-May-30 11:33N 49°28' E 000°32'0 0.0
2015-May-30 10:33N 49°28' E 000°32'0 0.0
2015-May-30 09:15N 49°28' E 000°32'0 0.0
2015-May-30 08:33N 49°28' E 000°32'0 0.0
2015-May-30 07:33N 49°28' E 000°32'0 0.0
2015-May-30 06:24N 49°28' E 000°32'0 0.0
2015-May-30 05:30N 49°28' E 000°32'0 0.0
2015-May-30 04:24N 49°28' E 000°32'0 0.0
2015-May-30 03:30N 49°28' E 000°32'0 0.0
2015-May-30 02:33N 49°28' E 000°32'0 0.0
2015-May-30 01:30N 49°28' E 000°32'0 0.0
2015-May-30 00:18N 49°28' E 000°32'0 0.0
2015-May-29 23:33N 49°28' E 000°32'0 0.0
2015-May-29 22:33N 49°28' E 000°32'0 0.0
2015-May-29 21:30N 49°28' E 000°32'0 0.0
2015-May-29 20:33N 49°28' E 000°32'0 0.0
2015-May-29 19:33N 49°28' E 000°32'0 0.0
2015-May-29 18:33N 49°28' E 000°32'0 0.0
2015-May-29 17:33N 49°28' E 000°32'0 0.0
2015-May-29 16:33N 49°28' E 000°32'0 0.0
2015-May-29 15:18N 49°28' E 000°32'0 0.0
2015-May-29 14:30N 49°28' E 000°32'0 0.0
2015-May-29 11:33N 49°28' E 000°32'0 0.0
2015-May-29 10:33N 49°28' E 000°32'0 0.0
2015-May-29 08:33N 49°28' E 000°32'0 0.0
2015-May-29 07:33N 49°28' E 000°32'0 0.0
2015-May-29 06:15N 49°28' E 000°32'0 0.0
2015-May-29 05:21N 49°28' E 000°32'0 0.0
2015-May-29 04:18N 49°28' E 000°32'0 0.0
2015-May-29 03:33N 49°28' E 000°32'0 0.0
2015-May-28 23:33N 49°28' E 000°32'0 0.0
2015-May-28 22:30N 49°28' E 000°32'0 0.0
2015-May-28 21:09N 49°28' E 000°32'0 0.0
2015-May-28 20:33N 49°28' E 000°32'0 0.0
2015-May-28 19:33N 49°28' E 000°32'0 0.0
2015-May-28 18:33N 49°28' E 000°32'0 0.0
2015-May-28 17:21N 49°28' E 000°32'0 0.0
2015-May-28 16:33N 49°28' E 000°32'0 0.0
2015-May-28 15:33N 49°28' E 000°32'0 0.0
2015-May-28 14:33N 49°28' E 000°32'0 0.0
2015-May-28 11:21N 49°28' E 000°32'0 0.0
2015-May-28 10:30N 49°28' E 000°32'0 0.0
2015-May-28 09:33N 49°28' E 000°32'0 0.0
2015-May-28 08:27N 49°28' E 000°32'0 0.0
2015-May-28 07:33N 49°28' E 000°32'0 0.0
2015-May-28 06:27N 49°28' E 000°32'0 0.0
2015-May-28 05:33N 49°28' E 000°32'0 0.0
2015-May-28 04:21N 49°28' E 000°32'0 0.0
2015-May-28 03:32N 49°28' E 000°32'5 4.7
2015-May-28 02:33N 49°27' E 000°25'1414.0
2015-May-28 01:33N 49°26' E 000°04'7 7.2
2015-May-28 00:33N 49°29' W 000°06'5 5.1
2015-May-27 23:33N 49°33' W 000°11'8 7.9
2015-May-27 22:33N 49°41' W 000°10'5711.3
2015-May-27 17:33N 50°33' E 000°25'1313.4
2015-May-27 16:33N 50°41' E 000°43'1413.7
2015-May-27 15:33N 50°49' E 000°59'1514.6
2015-May-27 14:33N 50°59' E 001°17'1616.0
2015-May-27 13:33N 51°08' E 001°38'1615.9
2015-May-27 12:33N 51°21' E 001°54'1212.1
2015-May-27 11:33N 51°21' E 002°13'1614.0
2015-May-27 10:23N 51°23' E 002°39'1112.8
2015-May-27 09:33N 51°23' E 002°56'1313.1
2015-May-27 08:33N 51°25' E 003°17'1212.3
2015-May-27 07:33N 51°26' E 003°37'1211.7
2015-May-27 06:33N 51°22' E 003°54'7 7.4
2015-May-27 05:33N 51°22' E 004°06'7 7.3
2015-May-27 04:33N 51°21' E 004°17'0 0.4
2015-May-27 03:33N 51°20' E 004°18'5 5.2
2015-May-27 02:33N 51°16' E 004°21'1 1.3
2015-May-27 01:32N 51°15' E 004°23'0 0.0
2015-May-27 00:32N 51°15' E 004°23'0 0.0
2015-May-26 23:32N 51°15' E 004°23'0 0.0
2015-May-26 22:32N 51°15' E 004°23'0 0.0
2015-May-26 21:32N 51°15' E 004°23'0 0.3
2015-May-26 20:33N 51°15' E 004°22'1 0.6
2015-May-26 19:33N 51°15' E 004°22'1 1.2
2015-May-26 18:34N 51°16' E 004°20'0 0.0
2015-May-26 17:16N 51°16' E 004°20'0 0.0
2015-May-26 16:30N 51°16' E 004°20'0 0.0
2015-May-26 15:34N 51°16' E 004°20'0 0.0
2015-May-26 14:33N 51°16' E 004°20'0 0.0
2015-May-26 13:34N 51°16' E 004°20'0 0.0
2015-May-26 12:33N 51°16' E 004°20'0 0.0
2015-May-26 11:33N 51°16' E 004°20'0 0.0
2015-May-26 10:33N 51°16' E 004°20'0 0.0
2015-May-26 09:34N 51°16' E 004°20'0 0.0
2015-May-26 08:34N 51°16' E 004°20'0 0.0
2015-May-26 07:34N 51°16' E 004°20'0 0.0
2015-May-26 06:25N 51°16' E 004°20'0 0.0
2015-May-26 05:33N 51°16' E 004°20'0 0.0
2015-May-26 04:34N 51°16' E 004°20'0 0.0
2015-May-26 03:34N 51°16' E 004°20'0 0.0
2015-May-26 02:33N 51°16' E 004°20'0 0.0
2015-May-26 01:33N 51°16' E 004°20'0 0.0
2015-May-26 00:28N 51°16' E 004°20'0 0.0
2015-May-25 23:34N 51°16' E 004°20'0 0.0
2015-May-25 22:34N 51°16' E 004°20'0 0.0
2015-May-25 21:31N 51°16' E 004°20'0 0.0
2015-May-25 20:34N 51°16' E 004°20'0 0.0
2015-May-25 19:25N 51°16' E 004°20'0 0.0
2015-May-25 18:31N 51°16' E 004°20'0 0.0
2015-May-25 17:33N 51°16' E 004°20'0 0.0
2015-May-25 16:30N 51°16' E 004°20'0 0.0
2015-May-25 15:21N 51°16' E 004°20'0 0.0
2015-May-25 14:27N 51°16' E 004°20'0 0.0
2015-May-25 13:31N 51°16' E 004°20'0 0.0
2015-May-25 12:34N 51°16' E 004°20'0 0.0
2015-May-25 11:28N 51°16' E 004°20'0 0.0
2015-May-25 10:34N 51°16' E 004°20'0 0.0
2015-May-25 09:34N 51°16' E 004°20'0 0.0
2015-May-25 08:30N 51°16' E 004°20'0 0.0
2015-May-25 07:30N 51°16' E 004°20'0 0.0
2015-May-25 06:34N 51°16' E 004°20'0 0.0
2015-May-25 05:34N 51°16' E 004°20'0 0.0
2015-May-25 04:31N 51°16' E 004°20'0 0.0
2015-May-25 03:27N 51°16' E 004°20'0 0.0
2015-May-25 02:34N 51°16' E 004°20'0 0.0
2015-May-25 01:30N 51°16' E 004°20'0 0.0
2015-May-25 00:34N 51°16' E 004°20'0 0.0
2015-May-24 23:25N 51°16' E 004°20'0 0.0
2015-May-24 22:30N 51°16' E 004°20'0 0.0
2015-May-24 21:34N 51°16' E 004°20'0 0.0
2015-May-24 20:31N 51°16' E 004°20'0 0.0
2015-May-24 19:34N 51°16' E 004°20'0 0.0
2015-May-24 18:34N 51°16' E 004°20'0 0.0
2015-May-24 17:27N 51°16' E 004°20'0 0.0
2015-May-24 16:34N 51°16' E 004°20'0 0.0
2015-May-24 15:33N 51°16' E 004°20'0 0.0
2015-May-24 14:25N 51°16' E 004°20'0 0.0
2015-May-24 13:33N 51°16' E 004°20'0 0.0
2015-May-24 12:34N 51°16' E 004°20'0 0.0
2015-May-24 11:28N 51°16' E 004°20'0 0.0
2015-May-24 10:34N 51°16' E 004°20'0 0.0
2015-May-24 09:30N 51°16' E 004°20'0 0.0
2015-May-24 08:34N 51°16' E 004°20'0 0.0
2015-May-24 07:33N 51°16' E 004°20'0 0.0
2015-May-24 06:30N 51°16' E 004°20'0 0.0
2015-May-24 05:28N 51°16' E 004°20'0 0.0
2015-May-24 04:33N 51°16' E 004°20'0 0.0
2015-May-24 03:34N 51°16' E 004°20'0 0.0
2015-May-24 02:30N 51°16' E 004°20'0 0.0
2015-May-24 01:27N 51°16' E 004°20'0 0.0
2015-May-24 00:34N 51°16' E 004°20'0 0.0
2015-May-23 23:33N 51°16' E 004°20'0 0.0
2015-May-23 22:27N 51°16' E 004°20'0 0.0
2015-May-23 21:30N 51°16' E 004°20'0 0.0
2015-May-23 20:33N 51°16' E 004°20'0 0.0
2015-May-23 19:27N 51°16' E 004°20'0 0.0
2015-May-23 18:34N 51°16' E 004°20'0 0.0
2015-May-23 17:33N 51°16' E 004°20'0 0.0
2015-May-23 16:33N 51°16' E 004°20'0 0.0
2015-May-23 15:31N 51°16' E 004°20'0 0.0
2015-May-23 14:33N 51°16' E 004°20'1 1.0
2015-May-23 13:33N 51°17' E 004°20'1 1.3
2015-May-23 12:33N 51°18' E 004°18'8 7.7
2015-May-23 11:33N 51°23' E 004°09'7 7.5
2015-May-23 10:33N 51°24' E 003°57'9 9.2
2015-May-23 09:33N 51°23' E 003°42'8 8.5
2015-May-23 08:33N 51°25' E 003°29'9 8.9
2015-May-23 07:33N 51°25' E 003°15'1010.6
2015-May-23 06:33N 51°25' E 002°58'1010.3
2015-May-23 05:33N 51°22' E 002°42'4 4.0
2015-May-23 04:31N 51°22' E 002°35'5 4.8
2015-May-23 03:33N 51°21' E 002°28'6 5.3
2015-May-23 02:29N 51°19' E 002°20'6 6.8
2015-May-23 01:33N 51°16' E 002°11'1414.1
2015-May-23 00:33N 51°09' E 001°51'1312.9
2015-May-22 23:33N 51°01' E 001°35'1211.9
2015-May-22 22:31N 50°50' E 001°26'  
Track history (hours):
 
Tides and Currents Weather Stations Pressure Air Temp Water Temp Dewpoint Dewpoint Depression Visibility Wind Speed Wind Dir Waves Ship Positions

Betagas

Last reported at 2015-May-30 19:34 UTC. Time now 2015-May-30 20:32 UTC.
Position N 49°34' W 000°07'.

Length 114.6 m; beam 15.7 m; draft 7.4 m.

Type: Ship. MMSI: 304050636.

Date/timePositionNaut miles runAvg speedWind from/ knotsBaromVisibWave heightAir tempDewpointWater temp
2015-May-30 19:34N 49°34' W 000°07'1010.5
2015-May-30 18:34N 49°26' E 000°04'1111.5
2015-May-30 17:34N 49°26' E 000°22'7 7.0
2015-May-30 16:34N 49°28' E 000°32'0 0.0
2015-May-30 15:09N 49°28' E 000°32'0 0.0
2015-May-30 14:27N 49°28' E 000°32'0 0.0
2015-May-30 13:33N 49°28' E 000°32'0 0.0
2015-May-30 11:33N 49°28' E 000°32'0 0.0
2015-May-30 10:33N 49°28' E 000°32'0 0.0
2015-May-30 09:15N 49°28' E 000°32'0 0.0
2015-May-30 08:33N 49°28' E 000°32'0 0.0
2015-May-30 07:33N 49°28' E 000°32'0 0.0
2015-May-30 06:24N 49°28' E 000°32'0 0.0
2015-May-30 05:30N 49°28' E 000°32'0 0.0
2015-May-30 04:24N 49°28' E 000°32'0 0.0
2015-May-30 03:30N 49°28' E 000°32'0 0.0
2015-May-30 02:33N 49°28' E 000°32'0 0.0
2015-May-30 01:30N 49°28' E 000°32'0 0.0
2015-May-30 00:18N 49°28' E 000°32'0 0.0
2015-May-29 23:33N 49°28' E 000°32'0 0.0
2015-May-29 22:33N 49°28' E 000°32'0 0.0
2015-May-29 21:30N 49°28' E 000°32'0 0.0
2015-May-29 20:33N 49°28' E 000°32'0 0.0
2015-May-29 19:33N 49°28' E 000°32'0 0.0
2015-May-29 18:33N 49°28' E 000°32'0 0.0
2015-May-29 17:33N 49°28' E 000°32'0 0.0
2015-May-29 16:33N 49°28' E 000°32'0 0.0
2015-May-29 15:18N 49°28' E 000°32'0 0.0
2015-May-29 14:30N 49°28' E 000°32'0 0.0
2015-May-29 11:33N 49°28' E 000°32'0 0.0
2015-May-29 10:33N 49°28' E 000°32'0 0.0
2015-May-29 08:33N 49°28' E 000°32'0 0.0
2015-May-29 07:33N 49°28' E 000°32'0 0.0
2015-May-29 06:15N 49°28' E 000°32'0 0.0
2015-May-29 05:21N 49°28' E 000°32'0 0.0
2015-May-29 04:18N 49°28' E 000°32'0 0.0
2015-May-29 03:33N 49°28' E 000°32'0 0.0
2015-May-28 23:33N 49°28' E 000°32'0 0.0
2015-May-28 22:30N 49°28' E 000°32'0 0.0
2015-May-28 21:09N 49°28' E 000°32'0 0.0
2015-May-28 20:33N 49°28' E 000°32'0 0.0
2015-May-28 19:33N 49°28' E 000°32'0 0.0
2015-May-28 18:33N 49°28' E 000°32'0 0.0
2015-May-28 17:21N 49°28' E 000°32'0 0.0
2015-May-28 16:33N 49°28' E 000°32'0 0.0
2015-May-28 15:33N 49°28' E 000°32'0 0.0
2015-May-28 14:33N 49°28' E 000°32'0 0.0
2015-May-28 11:21N 49°28' E 000°32'0 0.0
2015-May-28 10:30N 49°28' E 000°32'0 0.0
2015-May-28 09:33N 49°28' E 000°32'0 0.0
2015-May-28 08:27N 49°28' E 000°32'0 0.0
2015-May-28 07:33N 49°28' E 000°32'0 0.0
2015-May-28 06:27N 49°28' E 000°32'0 0.0
2015-May-28 05:33N 49°28' E 000°32'0 0.0
2015-May-28 04:21N 49°28' E 000°32'0 0.0
2015-May-28 03:32N 49°28' E 000°32'5 4.7
2015-May-28 02:33N 49°27' E 000°25'1414.0
2015-May-28 01:33N 49°26' E 000°04'7 7.2
2015-May-28 00:33N 49°29' W 000°06'5 5.1
2015-May-27 23:33N 49°33' W 000°11'8 7.9
2015-May-27 22:33N 49°41' W 000°10'5711.3
2015-May-27 17:33N 50°33' E 000°25'1313.4
2015-May-27 16:33N 50°41' E 000°43'1413.7
2015-May-27 15:33N 50°49' E 000°59'1514.6
2015-May-27 14:33N 50°59' E 001°17'1616.0
2015-May-27 13:33N 51°08' E 001°38'1615.9
2015-May-27 12:33N 51°21' E 001°54'1212.1
2015-May-27 11:33N 51°21' E 002°13'1614.0
2015-May-27 10:23N 51°23' E 002°39'1112.8
2015-May-27 09:33N 51°23' E 002°56'1313.1
2015-May-27 08:33N 51°25' E 003°17'1212.3
2015-May-27 07:33N 51°26' E 003°37'1211.7
2015-May-27 06:33N 51°22' E 003°54'7 7.4
2015-May-27 05:33N 51°22' E 004°06'7 7.3
2015-May-27 04:33N 51°21' E 004°17'0 0.4
2015-May-27 03:33N 51°20' E 004°18'5 5.2
2015-May-27 02:33N 51°16' E 004°21'1 1.3
2015-May-27 01:32N 51°15' E 004°23'0 0.0
2015-May-27 00:32N 51°15' E 004°23'0 0.0
2015-May-26 23:32N 51°15' E 004°23'0 0.0
2015-May-26 22:32N 51°15' E 004°23'0 0.0
2015-May-26 21:32N 51°15' E 004°23'0 0.3
2015-May-26 20:33N 51°15' E 004°22'1 0.6
2015-May-26 19:33N 51°15' E 004°22'1 1.2
2015-May-26 18:34N 51°16' E 004°20'0 0.0
2015-May-26 17:16N 51°16' E 004°20'0 0.0
2015-May-26 16:30N 51°16' E 004°20'0 0.0
2015-May-26 15:34N 51°16' E 004°20'0 0.0
2015-May-26 14:33N 51°16' E 004°20'0 0.0
2015-May-26 13:34N 51°16' E 004°20'0 0.0
2015-May-26 12:33N 51°16' E 004°20'0 0.0
2015-May-26 11:33N 51°16' E 004°20'0 0.0
2015-May-26 10:33N 51°16' E 004°20'0 0.0
2015-May-26 09:34N 51°16' E 004°20'0 0.0
2015-May-26 08:34N 51°16' E 004°20'0 0.0
2015-May-26 07:34N 51°16' E 004°20'0 0.0
2015-May-26 06:25N 51°16' E 004°20'0 0.0
2015-May-26 05:33N 51°16' E 004°20'0 0.0
2015-May-26 04:34N 51°16' E 004°20'0 0.0
2015-May-26 03:34N 51°16' E 004°20'0 0.0
2015-May-26 02:33N 51°16' E 004°20'0 0.0
2015-May-26 01:33N 51°16' E 004°20'0 0.0
2015-May-26 00:28N 51°16' E 004°20'0 0.0
2015-May-25 23:34N 51°16' E 004°20'0 0.0
2015-May-25 22:34N 51°16' E 004°20'0 0.0
2015-May-25 21:31N 51°16' E 004°20'0 0.0
2015-May-25 20:34N 51°16' E 004°20'0 0.0
2015-May-25 19:25N 51°16' E 004°20'0 0.0
2015-May-25 18:31N 51°16' E 004°20'0 0.0
2015-May-25 17:33N 51°16' E 004°20'0 0.0
2015-May-25 16:30N 51°16' E 004°20'0 0.0
2015-May-25 15:21N 51°16' E 004°20'0 0.0
2015-May-25 14:27N 51°16' E 004°20'0 0.0
2015-May-25 13:31N 51°16' E 004°20'0 0.0
2015-May-25 12:34N 51°16' E 004°20'0 0.0
2015-May-25 11:28N 51°16' E 004°20'0 0.0
2015-May-25 10:34N 51°16' E 004°20'0 0.0
2015-May-25 09:34N 51°16' E 004°20'0 0.0
2015-May-25 08:30N 51°16' E 004°20'0 0.0
2015-May-25 07:30N 51°16' E 004°20'0 0.0
2015-May-25 06:34N 51°16' E 004°20'0 0.0
2015-May-25 05:34N 51°16' E 004°20'0 0.0
2015-May-25 04:31N 51°16' E 004°20'0 0.0
2015-May-25 03:27N 51°16' E 004°20'0 0.0
2015-May-25 02:34N 51°16' E 004°20'0 0.0
2015-May-25 01:30N 51°16' E 004°20'0 0.0
2015-May-25 00:34N 51°16' E 004°20'0 0.0
2015-May-24 23:25N 51°16' E 004°20'0 0.0
2015-May-24 22:30N 51°16' E 004°20'0 0.0
2015-May-24 21:34N 51°16' E 004°20'0 0.0
2015-May-24 20:31N 51°16' E 004°20'0 0.0
2015-May-24 19:34N 51°16' E 004°20'0 0.0
2015-May-24 18:34N 51°16' E 004°20'0 0.0
2015-May-24 17:27N 51°16' E 004°20'0 0.0
2015-May-24 16:34N 51°16' E 004°20'0 0.0
2015-May-24 15:33N 51°16' E 004°20'0 0.0
2015-May-24 14:25N 51°16' E 004°20'0 0.0
2015-May-24 13:33N 51°16' E 004°20'0 0.0
2015-May-24 12:34N 51°16' E 004°20'0 0.0
2015-May-24 11:28N 51°16' E 004°20'0 0.0
2015-May-24 10:34N 51°16' E 004°20'0 0.0
2015-May-24 09:30N 51°16' E 004°20'0 0.0
2015-May-24 08:34N 51°16' E 004°20'0 0.0
2015-May-24 07:33N 51°16' E 004°20'0 0.0
2015-May-24 06:30N 51°16' E 004°20'0 0.0
2015-May-24 05:28N 51°16' E 004°20'0 0.0
2015-May-24 04:33N 51°16' E 004°20'0 0.0
2015-May-24 03:34N 51°16' E 004°20'0 0.0
2015-May-24 02:30N 51°16' E 004°20'0 0.0
2015-May-24 01:27N 51°16' E 004°20'0 0.0
2015-May-24 00:34N 51°16' E 004°20'0 0.0
2015-May-23 23:33N 51°16' E 004°20'0 0.0
2015-May-23 22:27N 51°16' E 004°20'0 0.0
2015-May-23 21:30N 51°16' E 004°20'0 0.0
2015-May-23 20:33N 51°16' E 004°20'0 0.0
2015-May-23 19:27N 51°16' E 004°20'0 0.0
2015-May-23 18:34N 51°16' E 004°20'0 0.0
2015-May-23 17:33N 51°16' E 004°20'0 0.0
2015-May-23 16:33N 51°16' E 004°20'0 0.0
2015-May-23 15:31N 51°16' E 004°20'0 0.0
2015-May-23 14:33N 51°16' E 004°20'1 1.0
2015-May-23 13:33N 51°17' E 004°20'1 1.3
2015-May-23 12:33N 51°18' E 004°18'8 7.7
2015-May-23 11:33N 51°23' E 004°09'7 7.5
2015-May-23 10:33N 51°24' E 003°57'9 9.2
2015-May-23 09:33N 51°23' E 003°42'8 8.5
2015-May-23 08:33N 51°25' E 003°29'9 8.9
2015-May-23 07:33N 51°25' E 003°15'1010.6
2015-May-23 06:33N 51°25' E 002°58'1010.3
2015-May-23 05:33N 51°22' E 002°42'4 4.0
2015-May-23 04:31N 51°22' E 002°35'5 4.8
2015-May-23 03:33N 51°21' E 002°28'6 5.3
2015-May-23 02:29N 51°19' E 002°20'6 6.8
2015-May-23 01:33N 51°16' E 002°11'1414.1
2015-May-23 00:33N 51°09' E 001°51'1312.9
2015-May-22 23:33N 51°01' E 001°35'1211.9
2015-May-22 22:31N 50°50' E 001°26'  

Dump ship's entire track history